createdAt,value
2018-05-12T00:01:05.497Z,86.52
2018-05-12T00:03:33.646Z,86.73
2018-05-12T00:06:01.815Z,87.11
2018-05-12T00:08:29.955Z,86.83
2018-05-12T00:10:58.083Z,86.99
2018-05-12T00:13:26.221Z,87.10
2018-05-12T00:15:54.386Z,87.29
2018-05-12T00:18:22.504Z,87.45
2018-05-12T00:20:50.670Z,87.54
2018-05-12T00:23:18.852Z,87.38
2018-05-12T00:25:46.990Z,87.38
2018-05-12T00:28:15.135Z,87.75
2018-05-12T00:30:43.279Z,88.45
2018-05-12T00:33:11.413Z,88.54
2018-05-12T00:35:39.649Z,88.40
2018-05-12T00:38:07.818Z,88.48
2018-05-12T00:40:35.970Z,88.45
2018-05-12T00:43:04.196Z,89.36
2018-05-12T00:45:32.284Z,89.37
2018-05-12T00:48:00.423Z,89.18
2018-05-12T00:50:28.589Z,89.24
2018-05-12T00:52:56.752Z,89.26
2018-05-12T00:55:24.903Z,89.34
2018-05-12T00:57:53.087Z,89.41
2018-05-12T01:00:21.193Z,89.50
2018-05-12T01:02:49.337Z,89.42
2018-05-12T01:05:17.484Z,89.50
2018-05-12T01:07:46.414Z,89.79
2018-05-12T01:10:14.553Z,89.82
2018-05-12T01:12:42.731Z,89.97
2018-05-12T01:15:10.887Z,89.91
2018-05-12T01:17:38.993Z,89.92
2018-05-12T01:20:07.135Z,90.51
2018-05-12T01:22:35.254Z,90.55
2018-05-12T01:25:03.406Z,91.05
2018-05-12T01:27:31.570Z,91.27
2018-05-12T01:29:59.688Z,91.22
2018-05-12T01:32:27.838Z,91.32
2018-05-12T01:34:55.972Z,91.07
2018-05-12T01:37:24.107Z,90.84
2018-05-12T01:39:52.247Z,90.53
2018-05-12T01:42:20.416Z,90.69
2018-05-12T01:44:48.543Z,90.61
2018-05-12T01:47:16.673Z,90.94
2018-05-12T01:49:44.838Z,91.22
2018-05-12T01:52:12.970Z,91.76
2018-05-12T01:54:41.128Z,91.76
2018-05-12T01:57:10.256Z,91.77
2018-05-12T01:59:38.635Z,92.03
2018-05-12T02:02:06.765Z,91.96
2018-05-12T02:04:34.915Z,91.66
2018-05-12T02:07:03.084Z,91.99
2018-05-12T02:09:31.236Z,92.30
2018-05-12T02:11:59.373Z,92.35
2018-05-12T02:14:27.512Z,92.34
2018-05-12T02:16:55.644Z,92.68
2018-05-12T02:19:23.789Z,92.73
2018-05-12T02:21:51.915Z,92.47
2018-05-12T02:24:20.039Z,92.88
2018-05-12T02:26:48.175Z,92.99
2018-05-12T02:29:16.319Z,92.90
2018-05-12T02:31:44.457Z,92.95
2018-05-12T02:34:12.643Z,93.04
2018-05-12T02:36:40.790Z,93.54
2018-05-12T02:39:09.937Z,93.43
2018-05-12T02:41:38.090Z,93.44
2018-05-12T02:44:06.230Z,93.56
2018-05-12T02:46:34.357Z,93.49
2018-05-12T02:49:02.494Z,93.43
2018-05-12T02:51:30.639Z,93.51
2018-05-12T02:53:58.781Z,93.37
2018-05-12T02:56:26.928Z,93.23
2018-05-12T02:58:55.068Z,93.20
2018-05-12T03:01:23.225Z,93.34
2018-05-12T03:03:51.364Z,93.44
2018-05-12T03:06:19.507Z,93.41
2018-05-12T03:08:47.632Z,93.37
2018-05-12T03:11:15.775Z,93.41
2018-05-12T03:13:43.905Z,93.26
2018-05-12T03:16:12.043Z,93.28
2018-05-12T03:18:40.171Z,93.46
2018-05-12T03:21:08.306Z,93.41
2018-05-12T03:23:36.433Z,93.43
2018-05-12T03:26:04.604Z,93.87
2018-05-12T03:28:32.717Z,93.99
2018-05-12T03:31:00.869Z,93.82
2018-05-12T03:33:29.023Z,93.88
2018-05-12T03:35:57.145Z,94.04
2018-05-12T03:38:25.285Z,94.13
2018-05-12T03:40:53.459Z,94.24
2018-05-12T03:43:21.593Z,94.20
2018-05-12T03:45:49.726Z,93.79
2018-05-12T03:48:17.854Z,93.64
2018-05-12T03:50:46.005Z,93.76
2018-05-12T03:53:14.135Z,93.94
2018-05-12T03:55:42.278Z,93.85
2018-05-12T03:58:10.429Z,93.70
2018-05-12T04:00:38.610Z,93.38
2018-05-12T04:03:06.825Z,93.44
2018-05-12T04:05:46.811Z,93.35
2018-05-12T04:08:26.624Z,93.51
2018-05-12T04:11:06.595Z,93.48
2018-05-12T04:13:34.730Z,93.36
2018-05-12T04:16:02.868Z,93.15
2018-05-12T04:18:31.014Z,93.13
2018-05-12T04:20:59.152Z,93.02
2018-05-12T04:23:27.301Z,92.61
2018-05-12T04:25:55.441Z,92.30
2018-05-12T04:28:23.595Z,92.53
2018-05-12T04:30:52.893Z,92.00
2018-05-12T04:33:21.019Z,91.56
2018-05-12T04:35:49.159Z,90.98
2018-05-12T04:38:17.297Z,90.51
2018-05-12T04:40:45.420Z,90.00
2018-05-12T04:43:13.558Z,89.27
2018-05-12T04:45:41.704Z,88.96
2018-05-12T04:48:09.839Z,88.92
2018-05-12T04:50:37.973Z,87.99
2018-05-12T04:53:06.191Z,87.84
2018-05-12T04:55:34.368Z,88.26
2018-05-12T04:58:02.525Z,88.75
2018-05-12T05:00:30.662Z,87.95
2018-05-12T05:02:58.785Z,87.79
2018-05-12T05:05:26.918Z,87.70
2018-05-12T05:07:55.070Z,87.23
2018-05-12T05:10:23.243Z,87.62
2018-05-12T05:12:51.390Z,88.33
2018-05-12T05:15:19.527Z,88.44
2018-05-12T05:17:47.666Z,88.13
2018-05-12T05:20:15.873Z,88.81
2018-05-12T05:22:43.949Z,88.01
2018-05-12T05:25:12.090Z,87.81
2018-05-12T05:27:40.226Z,88.30
2018-05-12T05:30:08.355Z,88.04
2018-05-12T05:32:36.499Z,87.49
2018-05-12T05:35:04.643Z,87.54
2018-05-12T05:37:32.782Z,87.89
2018-05-12T05:40:00.917Z,87.19
2018-05-12T05:42:29.074Z,87.62
2018-05-12T05:44:57.220Z,87.94
2018-05-12T05:47:25.346Z,87.96
2018-05-12T05:49:53.494Z,86.92
2018-05-12T05:52:21.635Z,86.97
2018-05-12T05:54:49.777Z,86.87
2018-05-12T05:57:17.913Z,85.37
2018-05-12T05:59:46.047Z,84.50
2018-05-12T06:02:14.176Z,84.14
2018-05-12T06:04:42.340Z,84.10
2018-05-12T06:07:10.828Z,84.73
2018-05-12T06:09:38.876Z,84.80
2018-05-12T06:12:07.017Z,85.34
2018-05-12T06:14:35.167Z,85.00
2018-05-12T06:17:03.307Z,85.57
2018-05-12T06:19:33.062Z,84.43
2018-05-12T06:22:01.190Z,82.80
2018-05-12T06:24:29.322Z,82.79
2018-05-12T06:26:57.482Z,83.39
2018-05-12T06:29:27.171Z,82.94
2018-05-12T06:31:56.569Z,83.16
2018-05-12T06:34:24.758Z,81.93
2018-05-12T06:36:52.906Z,82.08
2018-05-12T06:39:21.072Z,82.52
2018-05-12T06:41:49.182Z,82.57
2018-05-12T06:44:17.338Z,82.78
2018-05-12T06:46:45.485Z,81.83
2018-05-12T06:49:13.712Z,82.81
2018-05-12T06:51:41.831Z,82.17
2018-05-12T06:54:09.975Z,82.63
2018-05-12T06:56:38.139Z,82.17
2018-05-12T06:59:06.297Z,81.08
2018-05-12T07:01:34.443Z,80.58
2018-05-12T07:04:02.606Z,81.61
2018-05-12T07:06:30.738Z,80.03
2018-05-12T07:08:58.878Z,80.44
2018-05-12T07:11:27.011Z,79.51
2018-05-12T07:13:55.159Z,79.73
2018-05-12T07:16:23.312Z,80.41
2018-05-12T07:18:51.463Z,79.79
2018-05-12T07:21:19.585Z,80.12
2018-05-12T07:23:47.718Z,80.29
2018-05-12T07:26:15.854Z,79.52
2018-05-12T07:28:43.994Z,78.46
2018-05-12T07:31:12.150Z,78.52
2018-05-12T07:33:40.294Z,78.19
2018-05-12T07:36:08.431Z,78.15
2018-05-12T07:38:36.597Z,77.80
2018-05-12T07:41:04.729Z,77.15
2018-05-12T07:43:32.855Z,76.63
2018-05-12T07:46:00.990Z,76.59
2018-05-12T07:48:29.168Z,76.53
2018-05-12T07:50:57.351Z,76.12
2018-05-12T07:53:25.512Z,75.65
2018-05-12T07:55:53.655Z,76.62
2018-05-12T07:58:21.779Z,75.59
2018-05-12T08:00:49.912Z,74.70
2018-05-12T08:03:18.047Z,74.67
2018-05-12T08:05:46.187Z,74.02
2018-05-12T08:08:14.337Z,74.08
2018-05-12T08:10:42.496Z,74.16
2018-05-12T08:13:10.652Z,73.57
2018-05-12T08:15:38.790Z,74.40
2018-05-12T08:18:06.953Z,72.85
2018-05-12T08:20:35.177Z,72.90
2018-05-12T08:23:03.220Z,72.72
2018-05-12T08:25:32.898Z,72.07
2018-05-12T08:28:01.045Z,70.73
2018-05-12T08:30:30.069Z,71.30
2018-05-12T08:33:00.127Z,71.52
2018-05-12T08:35:28.334Z,70.57
2018-05-12T08:37:56.481Z,69.11
2018-05-12T08:40:24.650Z,69.25
2018-05-12T08:42:52.791Z,67.96
2018-05-12T08:45:20.943Z,67.64
2018-05-12T08:47:49.128Z,66.61
2018-05-12T08:50:17.264Z,67.54
2018-05-12T08:52:45.400Z,64.49
2018-05-12T08:55:13.550Z,65.19
2018-05-12T08:57:41.688Z,64.72
2018-05-12T09:00:09.810Z,64.34
2018-05-12T09:05:12.190Z,65.32
2018-05-12T09:07:40.333Z,65.39
2018-05-12T09:10:08.469Z,66.07
2018-05-12T09:12:36.594Z,65.92
2018-05-12T09:15:04.864Z,65.10
2018-05-12T09:17:32.999Z,64.80
2018-05-12T09:20:01.140Z,65.10
2018-05-12T09:22:29.291Z,64.28
2018-05-12T09:24:57.419Z,63.64
2018-05-12T09:27:25.577Z,63.16
2018-05-12T09:29:53.711Z,63.50
2018-05-12T09:32:21.854Z,62.91
2018-05-12T09:34:50.014Z,62.76
2018-05-12T09:37:18.222Z,63.28
2018-05-12T09:39:46.339Z,62.35
2018-05-12T09:42:14.561Z,62.67
2018-05-12T09:44:42.625Z,62.25
2018-05-12T09:47:10.787Z,62.45
2018-05-12T09:49:38.925Z,63.25
2018-05-12T09:52:07.076Z,64.22
2018-05-12T09:54:35.217Z,61.74
2018-05-12T09:57:03.380Z,61.29
2018-05-12T09:59:31.736Z,61.44
2018-05-12T10:01:59.806Z,58.38
2018-05-12T10:04:27.932Z,58.36
2018-05-12T10:06:56.095Z,56.89
2018-05-12T10:09:24.231Z,57.14
2018-05-12T10:11:52.365Z,58.24
2018-05-12T10:14:20.526Z,57.75
2018-05-12T10:16:48.694Z,56.26
2018-05-12T10:19:16.861Z,54.83
2018-05-12T10:21:45.066Z,53.83
2018-05-12T10:24:13.235Z,55.10
2018-05-12T10:26:41.340Z,53.77
2018-05-12T10:29:10.223Z,54.62
2018-05-12T10:31:38.350Z,54.54
2018-05-12T10:34:06.483Z,54.77
2018-05-12T10:36:34.643Z,53.28
2018-05-12T10:39:02.770Z,54.06
2018-05-12T10:41:30.907Z,55.95
2018-05-12T10:43:59.073Z,52.07
2018-05-12T10:46:27.191Z,50.28
2018-05-12T10:48:55.341Z,51.33
2018-05-12T10:51:23.669Z,50.07
2018-05-12T10:53:51.812Z,49.95
2018-05-12T10:56:19.934Z,50.42
2018-05-12T10:58:48.109Z,50.61
2018-05-12T11:01:16.241Z,50.64
2018-05-12T11:03:44.375Z,50.37
2018-05-12T11:06:12.534Z,49.44
2018-05-12T11:08:40.671Z,51.56
2018-05-12T11:11:09.295Z,50.04
2018-05-12T11:13:37.730Z,49.91
2018-05-12T11:16:05.979Z,47.54
2018-05-12T11:18:34.062Z,49.53
2018-05-12T11:21:02.212Z,49.69
2018-05-12T11:23:30.363Z,48.31
2018-05-12T11:25:58.499Z,48.93
2018-05-12T11:28:26.648Z,48.64
2018-05-12T11:30:54.870Z,49.54
2018-05-12T11:33:23.018Z,47.13
2018-05-12T11:35:51.348Z,46.72
2018-05-12T11:38:19.466Z,47.59
2018-05-12T11:40:47.634Z,47.84
2018-05-12T11:43:15.803Z,46.71
2018-05-12T11:45:43.941Z,45.86
2018-05-12T11:48:12.093Z,47.14
2018-05-12T11:50:40.267Z,47.08
2018-05-12T11:53:08.458Z,45.69
2018-05-12T11:55:36.600Z,46.02
2018-05-12T11:58:04.774Z,45.50
2018-05-12T12:00:32.920Z,46.48
2018-05-12T12:03:01.075Z,47.28
2018-05-12T12:05:29.387Z,45.16
2018-05-12T12:07:57.512Z,45.14
2018-05-12T12:10:25.663Z,45.43
2018-05-12T12:12:53.839Z,44.63
2018-05-12T12:15:21.987Z,45.19
2018-05-12T12:17:50.137Z,45.15
2018-05-12T12:20:18.308Z,43.86
2018-05-12T12:22:46.450Z,43.52
2018-05-12T12:25:14.569Z,44.25
2018-05-12T12:27:42.712Z,44.13
2018-05-12T12:30:10.853Z,45.28
2018-05-12T12:32:39.024Z,45.09
2018-05-12T12:35:07.274Z,44.39
2018-05-12T12:37:35.405Z,42.66
2018-05-12T12:40:03.539Z,43.46
2018-05-12T12:42:31.859Z,43.29
2018-05-12T12:44:59.988Z,43.46
2018-05-12T12:47:28.116Z,42.18
2018-05-12T12:49:56.280Z,43.10
2018-05-12T12:52:24.381Z,41.80
2018-05-12T12:54:52.505Z,41.98
2018-05-12T12:57:20.653Z,43.55
2018-05-12T12:59:48.762Z,44.47
2018-05-12T13:02:16.903Z,44.48
2018-05-12T13:04:45.316Z,45.25
2018-05-12T13:07:13.353Z,47.18
2018-05-12T13:09:41.482Z,49.20
2018-05-12T13:12:09.784Z,49.94
2018-05-12T13:14:41.043Z,50.18
2018-05-12T13:17:09.177Z,50.13
2018-05-12T13:19:37.343Z,50.79
2018-05-12T13:22:05.600Z,50.89
2018-05-12T13:24:33.659Z,50.46
2018-05-12T13:27:01.838Z,49.43
2018-05-12T13:29:29.968Z,50.35
2018-05-12T13:31:58.095Z,48.56
2018-05-12T13:34:26.255Z,47.65
2018-05-12T13:36:54.379Z,48.39
2018-05-12T13:39:22.523Z,48.85
2018-05-12T13:41:50.689Z,48.58
2018-05-12T13:44:18.855Z,48.44
2018-05-12T13:46:46.979Z,49.00
2018-05-12T13:49:15.215Z,49.47
2018-05-12T13:51:43.340Z,51.86
2018-05-12T13:54:11.466Z,50.39
2018-05-12T13:56:39.770Z,50.34
2018-05-12T13:59:08.731Z,51.11
2018-05-12T14:01:36.897Z,49.81
2018-05-12T14:04:05.047Z,50.94
2018-05-12T14:06:33.183Z,51.39
2018-05-12T14:09:01.311Z,50.25
2018-05-12T14:11:29.472Z,51.41
2018-05-12T14:13:57.582Z,53.18
2018-05-12T14:16:25.716Z,53.06
2018-05-12T14:18:53.967Z,53.00
2018-05-12T14:21:22.083Z,53.57
2018-05-12T14:23:50.222Z,54.05
2018-05-12T14:26:18.520Z,53.86
2018-05-12T14:28:46.658Z,54.40
2018-05-12T14:31:14.804Z,53.89
2018-05-12T14:33:42.969Z,52.61
2018-05-12T14:36:11.121Z,51.89
2018-05-12T14:38:39.244Z,53.01
2018-05-12T14:41:07.453Z,52.17
2018-05-12T14:43:35.567Z,52.22
2018-05-12T14:46:03.720Z,52.52
2018-05-12T14:48:31.861Z,52.88
2018-05-12T14:50:59.996Z,51.08
2018-05-12T14:53:28.148Z,51.91
2018-05-12T14:55:58.353Z,52.51
2018-05-12T14:58:26.492Z,54.65
2018-05-12T15:00:54.613Z,54.14
2018-05-12T15:03:22.768Z,54.82
2018-05-12T15:05:50.907Z,55.31
2018-05-12T15:08:19.096Z,56.05
2018-05-12T15:10:47.234Z,55.06
2018-05-12T15:13:15.352Z,55.35
2018-05-12T15:15:43.506Z,54.92
2018-05-12T15:18:11.673Z,55.59
2018-05-12T15:20:39.783Z,56.44
2018-05-12T15:23:07.915Z,55.90
2018-05-12T15:25:36.199Z,54.98
2018-05-12T15:28:04.319Z,55.80
2018-05-12T15:30:32.446Z,55.26
2018-05-12T15:33:00.899Z,56.10
2018-05-12T15:35:29.034Z,56.19
2018-05-12T15:37:57.176Z,57.63
2018-05-12T15:40:25.322Z,57.41
2018-05-12T15:42:53.475Z,56.59
2018-05-12T15:45:21.601Z,57.43
2018-05-12T15:47:49.757Z,56.64
2018-05-12T15:50:17.915Z,57.41
2018-05-12T15:52:46.067Z,57.65
2018-05-12T15:55:14.354Z,57.86
2018-05-12T15:57:42.500Z,58.08
2018-05-12T16:00:10.651Z,57.82
2018-05-12T16:02:38.778Z,57.40
2018-05-12T16:05:06.988Z,58.05
2018-05-12T16:07:35.119Z,58.72
2018-05-12T16:10:03.281Z,58.95
2018-05-12T16:12:31.411Z,58.61
2018-05-12T16:14:59.543Z,58.63
2018-05-12T16:17:27.687Z,58.37
2018-05-12T16:19:55.794Z,59.08
2018-05-12T16:22:23.952Z,58.72
2018-05-12T16:24:52.131Z,58.71
2018-05-12T16:27:20.276Z,58.38
2018-05-12T16:29:49.716Z,59.07
2018-05-12T16:32:18.255Z,59.50
2018-05-12T16:34:46.444Z,59.29
2018-05-12T16:37:14.559Z,60.38
2018-05-12T16:39:42.724Z,59.41
2018-05-12T16:42:10.850Z,59.72
2018-05-12T16:44:39.089Z,60.48
2018-05-12T16:47:07.223Z,59.93
2018-05-12T16:49:35.340Z,60.28
2018-05-12T16:52:03.471Z,60.52
2018-05-12T16:54:31.629Z,60.80
2018-05-12T16:56:59.747Z,61.82
2018-05-12T16:59:27.861Z,61.73
2018-05-12T17:01:56.068Z,62.11
2018-05-12T17:04:24.120Z,62.77
2018-05-12T17:06:52.234Z,62.77
2018-05-12T17:09:20.379Z,62.84
2018-05-12T17:11:48.502Z,63.33
2018-05-12T17:14:16.635Z,63.40
2018-05-12T17:16:44.759Z,63.67
2018-05-12T17:19:12.897Z,63.87
2018-05-12T17:21:41.042Z,64.85
2018-05-12T17:24:09.178Z,65.23
2018-05-12T17:26:37.307Z,65.38
2018-05-12T17:29:05.468Z,65.72
2018-05-12T17:31:33.661Z,66.07
2018-05-12T17:34:01.810Z,66.55
2018-05-12T17:36:29.939Z,66.57
2018-05-12T17:38:58.081Z,66.90
2018-05-12T17:41:26.215Z,67.14
2018-05-12T17:43:54.378Z,66.87
2018-05-12T17:46:22.510Z,67.02
2018-05-12T17:48:50.652Z,66.96
2018-05-12T17:51:18.864Z,67.38
2018-05-12T17:53:47.065Z,67.77
2018-05-12T17:56:15.262Z,68.06
2018-05-12T17:58:43.424Z,68.25
2018-05-12T18:01:11.577Z,68.91
2018-05-12T18:03:39.727Z,69.03
2018-05-12T18:06:07.859Z,68.68
2018-05-12T18:08:35.996Z,68.70
2018-05-12T18:11:04.286Z,69.24
2018-05-12T18:13:32.416Z,69.58
2018-05-12T18:16:00.576Z,70.04
2018-05-12T18:18:28.715Z,70.60
2018-05-12T18:20:56.857Z,71.89
2018-05-12T18:23:25.031Z,72.31
2018-05-12T18:25:53.177Z,72.74
2018-05-12T18:28:21.327Z,73.05
2018-05-12T18:30:49.515Z,73.55
2018-05-12T18:33:17.637Z,73.56
2018-05-12T18:35:45.781Z,73.66
2018-05-12T18:38:13.948Z,74.23
2018-05-12T18:40:43.581Z,74.50
2018-05-12T18:43:11.796Z,74.56
2018-05-12T18:45:39.940Z,75.19
2018-05-12T18:48:08.087Z,75.39
2018-05-12T18:50:36.280Z,75.31
2018-05-12T18:53:04.397Z,75.18
2018-05-12T18:55:32.528Z,75.40
2018-05-12T18:58:00.662Z,75.30
2018-05-12T19:00:28.826Z,75.24
